Time;durP1;ratioP1;P1;durP2;ratioP2;P2;SDS_P1;SDS_P2;PMS_P1;PMS_P2;Temp;Humidity;BMP_temperature;BMP_pressure;BME280_temperature;BME280_humidity;BME280_pressure;Samples;Min_cycle;Max_cycle;Signal;HPM_P1;HPM_P2
2023/10/23 00:02:00;;;;;;;14.98;14.48;;;;;;;-141.02;100.00;39880.81;5091827;28;20192;-66
2023/10/23 00:04:27;;;;;;;14.82;14.32;;;;;;;-141.02;100.00;39773.41;5112507;28;20242;-66
2023/10/23 00:06:54;;;;;;;14.48;13.98;;;;;;;-141.02;100.00;39792.59;5112150;28;20193;-69
2023/10/23 00:09:21;;;;;;;14.40;13.90;;;;;;;-141.02;100.00;39802.19;5112408;28;20278;-67
2023/10/23 00:11:48;;;;;;;13.80;13.40;;;;;;;-141.02;100.00;39775.34;5112380;28;20189;-66
2023/10/23 00:14:15;;;;;;;14.20;13.70;;;;;;;-141.02;100.00;39796.44;5112087;28;20284;-66
2023/10/23 00:16:43;;;;;;;14.32;13.82;;;;;;;-141.02;100.00;39777.25;5112070;28;20637;-67
2023/10/23 00:19:10;;;;;;;14.40;13.90;;;;;;;-141.02;100.00;39748.47;5112486;28;20625;-67
2023/10/23 00:21:38;;;;;;;13.68;13.27;;;;;;;-141.02;100.00;39754.22;5110673;28;20197;-66
2023/10/23 00:24:05;;;;;;;13.82;13.43;;;;;;;-141.02;100.00;39694.78;5111363;28;20199;-66
2023/10/23 00:26:32;;;;;;;13.80;13.40;;;;;;;-141.02;100.00;39712.03;5112269;28;20202;-66
2023/10/23 00:29:00;;;;;;;13.65;13.25;;;;;;;-141.02;100.00;39673.69;5112207;28;20224;-66
2023/10/23 00:31:27;;;;;;;13.40;13.00;;;;;;;-141.02;100.00;39689.03;5112270;28;20228;-66
2023/10/23 00:33:55;;;;;;;13.95;13.55;;;;;;;-141.02;100.00;39727.38;5112203;28;20215;-66
2023/10/23 00:36:22;;;;;;;13.50;13.10;;;;;;;-141.02;100.00;39804.09;5112270;28;20189;-66
2023/10/23 00:38:49;;;;;;;13.90;13.50;;;;;;;-141.02;100.00;39773.41;5112098;28;20211;-67
2023/10/23 00:41:16;;;;;;;13.80;13.40;;;;;;;-141.02;100.00;39783.00;5114625;28;20197;-67
2023/10/23 00:43:43;;;;;;;14.70;14.20;;;;;;;-141.02;100.00;39752.31;5115635;28;20196;-66
2023/10/23 00:46:15;;;;;;;13.98;13.57;;;;;;;-141.02;100.00;39804.09;5115832;28;20189;-66
2023/10/23 00:48:43;;;;;;;14.70;14.20;;;;;;;-141.02;100.00;39790.69;5115464;28;20301;-66
2023/10/23 00:51:19;;;;;;;14.00;13.60;;;;;;;-141.02;100.00;39769.56;5115742;28;20197;-66
2023/10/23 00:53:47;;;;;;;13.43;13.02;;;;;;;-141.02;100.00;39704.38;5115483;28;20196;-66
2023/10/23 00:56:15;;;;;;;13.70;13.30;;;;;;;-141.02;100.00;39719.72;5115709;28;20193;-66
2023/10/23 00:58:43;;;;;;;13.73;13.32;;;;;;;-141.02;100.00;39689.03;5115428;28;20722;-75
2023/10/23 01:01:12;;;;;;;12.55;12.15;;;;;;;-141.02;100.00;39696.69;5115596;28;20651;-65
2023/10/23 01:03:42;;;;;;;12.95;12.55;;;;;;;-141.02;100.00;39650.66;5115522;28;20193;-68
2023/10/23 01:06:10;;;;;;;13.30;12.90;;;;;;;-141.02;100.00;39685.19;5115484;28;20190;-67
2023/10/23 01:08:39;;;;;;;13.07;12.68;;;;;;;-141.02;100.00;39708.19;5115013;28;20224;-66
2023/10/23 01:11:06;;;;;;;12.25;11.85;;;;;;;-141.02;100.00;39681.34;5115071;28;20597;-66
2023/10/23 01:13:33;;;;;;;12.20;11.80;;;;;;;-141.02;100.00;39673.69;5115316;28;20228;-66
2023/10/23 01:16:00;;;;;;;12.38;11.98;;;;;;;-141.02;100.00;39654.50;5114967;28;20284;-67
2023/10/23 01:18:27;;;;;;;13.13;12.73;;;;;;;-141.02;100.00;39629.56;5114891;28;20211;-68
2023/10/23 01:20:54;;;;;;;13.30;12.90;;;;;;;-141.02;100.00;39600.78;5115191;28;20193;-67
2023/10/23 01:23:25;;;;;;;13.95;13.48;;;;;;;-141.02;100.00;39600.78;5115111;28;20649;-66
2023/10/23 01:25:54;;;;;;;12.32;11.93;;;;;;;-141.02;100.00;39537.50;5114834;28;20185;-67
2023/10/23 01:28:21;;;;;;;12.75;12.35;;;;;;;-141.02;100.00;39612.31;5115200;28;20308;-66
2023/10/23 01:30:49;;;;;;;12.82;12.43;;;;;;;-141.02;100.00;39562.44;5114978;28;20231;-67
2023/10/23 01:33:16;;;;;;;12.27;11.88;;;;;;;-141.02;100.00;39558.59;5114992;28;20197;-66
2023/10/23 01:35:43;;;;;;;12.40;12.00;;;;;;;-141.02;100.00;39455.03;5114597;28;20193;-67
2023/10/23 01:38:10;;;;;;;12.20;11.80;;;;;;;-141.02;100.00;39420.53;5114825;28;20274;-68
2023/10/23 01:40:37;;;;;;;12.20;11.80;;;;;;;-141.02;100.00;39370.66;5114542;28;20193;-65
2023/10/23 01:43:05;;;;;;;11.73;11.43;;;;;;;-141.02;100.00;39328.47;5114445;28;20574;-67
2023/10/23 01:45:32;;;;;;;12.20;11.80;;;;;;;-141.02;100.00;39297.78;5114792;28;20295;-66
2023/10/23 01:47:59;;;;;;;12.40;12.00;;;;;;;-141.02;100.00;39247.91;5114550;28;20288;-66
2023/10/23 01:50:26;;;;;;;12.30;11.90;;;;;;;-141.02;100.00;39255.59;5114296;28;20204;-69
2023/10/23 01:52:57;;;;;;;12.00;11.63;;;;;;;-141.02;100.00;39178.88;5113317;28;20276;-66
2023/10/23 01:55:55;;;;;;;12.15;11.75;;;;;;;-141.02;100.00;39152.03;5114258;28;20193;-66
2023/10/23 01:58:24;;;;;;;12.55;12.15;;;;;;;-141.02;100.00;39121.34;5114226;28;20324;-66
2023/10/23 02:00:53;;;;;;;11.70;11.40;;;;;;;-141.02;100.00;39098.34;5114147;28;20659;-66
2023/10/23 02:03:26;;;;;;;11.68;11.38;;;;;;;-141.02;100.00;39084.91;5114031;28;20678;-68
2023/10/23 02:05:56;;;;;;;11.40;11.10;;;;;;;-141.02;100.00;39056.16;5114078;28;20196;-66
2023/10/23 02:08:23;;;;;;;11.75;11.45;;;;;;;-141.02;100.00;39031.22;5113836;28;20224;-67
2023/10/23 02:10:53;;;;;;;11.90;11.60;;;;;;;-141.02;100.00;39013.97;5114273;28;20570;-66
2023/10/23 02:13:21;;;;;;;11.40;11.10;;;;;;;-141.02;100.00;39042.72;5114429;28;20285;-66
2023/10/23 02:15:50;;;;;;;11.73;11.43;;;;;;;-141.02;100.00;39040.81;5113850;28;20189;-68
2023/10/23 02:18:17;;;;;;;11.68;11.38;;;;;;;-141.02;100.00;39012.06;5113796;28;20718;-66
2023/10/23 02:20:44;;;;;;;12.55;12.15;;;;;;;-141.02;100.00;39021.63;5113964;28;20217;-67
2023/10/23 02:23:11;;;;;;;11.82;11.52;;;;;;;-141.02;100.00;39013.97;5113757;28;20658;-69
2023/10/23 02:25:38;;;;;;;11.50;11.20;;;;;;;-141.02;100.00;38996.72;5113544;28;20229;-66
2023/10/23 02:28:05;;;;;;;11.75;11.45;;;;;;;-141.02;100.00;38975.63;5113928;28;20203;-66
2023/10/23 02:30:32;;;;;;;12.10;11.70;;;;;;;-141.02;100.00;38948.78;5113456;28;20674;-66
2023/10/23 02:33:00;;;;;;;11.50;11.20;;;;;;;-141.02;100.00;38971.78;5113732;28;20195;-67
2023/10/23 02:35:27;;;;;;;10.98;10.68;;;;;;;-141.02;100.00;39036.97;5113732;28;20232;-71
2023/10/23 02:37:55;;;;;;;11.82;11.52;;;;;;;-141.02;100.00;39065.75;5113675;28;20272;-67
2023/10/23 02:40:22;;;;;;;12.13;11.73;;;;;;;-141.02;100.00;39111.78;5113717;28;20193;-68
2023/10/23 02:42:50;;;;;;;14.15;13.75;;;;;;;-141.02;100.00;39102.19;5113625;28;20197;-67
2023/10/23 02:45:16;;;;;;;11.77;11.48;;;;;;;-141.02;100.00;39098.34;5113511;28;20251;-66
2023/10/23 02:47:43;;;;;;;12.00;11.65;;;;;;;-141.02;100.00;39048.50;5113296;28;20197;-66
2023/10/23 02:50:14;;;;;;;12.00;11.60;;;;;;;-141.02;100.00;38975.63;5113426;28;20311;-66
2023/10/23 02:52:41;;;;;;;11.65;11.35;;;;;;;-141.02;100.00;38931.50;5113231;28;20272;-67
2023/10/23 02:55:09;;;;;;;10.80;10.50;;;;;;;-141.02;100.00;38883.56;5113062;28;20189;-67
2023/10/23 02:57:36;;;;;;;11.00;10.70;;;;;;;-141.02;100.00;38881.66;5113073;28;20278;-67
2023/10/23 03:00:05;;;;;;;11.35;11.05;;;;;;;-141.02;100.00;38806.88;5113011;28;20199;-68
2023/10/23 03:05:56;;;;;;;10.00;9.70;;;;;;;-141.02;100.00;38688.00;5113336;28;20184;-69
2023/10/23 03:08:23;;;;;;;10.60;10.30;;;;;;;-141.02;100.00;38643.91;5112795;28;20189;-66
2023/10/23 03:11:06;;;;;;;10.70;10.40;;;;;;;-141.02;100.00;38682.25;5113139;28;20277;-66
2023/10/23 03:13:34;;;;;;;10.43;10.13;;;;;;;-141.02;100.00;38584.47;5112924;28;20200;-67
2023/10/23 03:16:01;;;;;;;9.98;9.68;;;;;;;-141.02;100.00;38502.03;5112795;28;20193;-65
2023/10/23 03:18:28;;;;;;;10.32;10.02;;;;;;;-141.02;100.00;38511.59;5112624;28;20288;-67
2023/10/23 03:21:00;;;;;;;10.43;10.13;;;;;;;-141.02;100.00;38465.59;5112875;28;20246;-67
2023/10/23 03:23:28;;;;;;;10.48;10.18;;;;;;;-141.02;100.00;38457.91;5112678;28;20189;-66
2023/10/23 03:25:56;;;;;;;10.32;10.02;;;;;;;-141.02;100.00;38396.56;5112891;28;20197;-66
2023/10/23 03:28:23;;;;;;;9.90;9.60;;;;;;;-141.02;100.00;38383.16;5112927;28;20197;-66
2023/10/23 03:30:50;;;;;;;8.98;8.77;;;;;;;-141.02;100.00;38396.56;5112704;28;20225;-66
2023/10/23 03:33:17;;;;;;;9.70;9.40;;;;;;;-141.02;100.00;38477.09;5112519;28;20193;-66
2023/10/23 03:35:44;;;;;;;9.85;9.55;;;;;;;-141.02;100.00;38486.69;5112510;28;20198;-66
2023/10/23 03:38:13;;;;;;;10.32;10.02;;;;;;;-141.02;100.00;38507.78;5112845;28;20197;-67
2023/10/23 03:40:40;;;;;;;10.80;10.50;;;;;;;-141.02;100.00;38519.28;5112811;28;20276;-67
2023/10/23 03:43:07;;;;;;;11.52;11.15;;;;;;;-141.02;100.00;38442.59;5112645;28;20203;-66
2023/10/23 03:45:36;;;;;;;10.35;10.05;;;;;;;-141.02;100.00;38398.50;5112673;28;20730;-66
2023/10/23 03:48:03;;;;;;;10.00;9.70;;;;;;;-141.02;100.00;38369.72;5112636;28;20192;-65
2023/10/23 03:50:30;;;;;;;9.70;9.40;;;;;;;-141.02;100.00;38319.88;5112309;28;20263;-66
2023/10/23 03:52:57;;;;;;;8.75;8.55;;;;;;;-141.02;100.00;38285.38;5112598;28;20193;-65
2023/10/23 03:55:26;;;;;;;8.60;8.40;;;;;;;-141.02;100.00;38258.53;5112277;28;20587;-67
2023/10/23 03:57:53;;;;;;;8.70;8.50;;;;;;;-141.02;100.00;38277.72;5112078;28;20771;-66
2023/10/23 04:00:20;;;;;;;8.80;8.60;;;;;;;-141.02;100.00;38235.53;5112204;28;20284;-66
2023/10/23 04:02:47;;;;;;;9.50;9.20;;;;;;;-141.02;100.00;38224.03;5112225;28;20197;-65
2023/10/23 04:05:14;;;;;;;8.80;8.60;;;;;;;-141.02;100.00;38201.03;5112533;28;20192;-66
2023/10/23 04:07:41;;;;;;;8.40;8.20;;;;;;;-141.02;100.00;38174.19;5112223;28;20193;-66
2023/10/23 04:10:08;;;;;;;7.95;7.75;;;;;;;-141.02;100.00;38170.34;5112417;28;20312;-65
2023/10/23 04:12:37;;;;;;;8.75;8.55;;;;;;;-141.02;100.00;38193.34;5112362;28;20197;-66
2023/10/23 04:15:04;;;;;;;9.20;9.00;;;;;;;-141.02;100.00;38197.19;5112598;28;20651;-67
2023/10/23 04:17:32;;;;;;;8.50;8.30;;;;;;;-141.02;100.00;38174.19;5116165;28;20284;-66
2023/10/23 04:19:59;;;;;;;9.20;9.00;;;;;;;-141.02;100.00;38197.19;5116138;28;20287;-65
2023/10/23 04:22:25;;;;;;;9.60;9.30;;;;;;;-141.02;100.00;38174.19;5116384;28;20193;-68
2023/10/23 04:24:54;;;;;;;9.52;9.23;;;;;;;-141.02;100.00;38212.53;5116284;27;20197;-66
2023/10/23 04:27:21;;;;;;;9.70;9.40;;;;;;;-141.02;100.00;38193.34;5116035;28;20575;-65
2023/10/23 04:29:50;;;;;;;9.18;8.98;;;;;;;-141.02;100.00;38193.34;5116115;28;20236;-65
2023/10/23 04:32:17;;;;;;;9.60;9.30;;;;;;;-141.02;100.00;38174.19;5116306;28;20281;-66
2023/10/23 04:34:43;;;;;;;9.90;9.60;;;;;;;-141.02;100.00;38178.00;5116139;28;20292;-66
2023/10/23 04:37:10;;;;;;;9.98;9.68;;;;;;;-141.02;100.00;38193.34;5116050;28;20200;-65
2023/10/23 04:39:37;;;;;;;9.80;9.50;;;;;;;-141.02;100.00;38254.69;5116071;28;20284;-66
2023/10/23 04:42:05;;;;;;;9.90;9.60;;;;;;;-141.02;100.00;38402.31;5115699;28;20554;-66
2023/10/23 04:44:33;;;;;;;10.00;9.70;;;;;;;-141.02;100.00;38465.59;5115746;28;20189;-66
2023/10/23 04:47:03;;;;;;;10.20;9.90;;;;;;;-141.02;100.00;38482.84;5115857;28;20207;-66
2023/10/23 04:49:30;;;;;;;10.30;10.00;;;;;;;-141.02;100.00;38525.03;5115510;28;20228;-65
2023/10/23 04:51:56;;;;;;;10.60;10.30;;;;;;;-141.02;100.00;38565.28;5115520;28;20197;-66
2023/10/23 04:54:23;;;;;;;10.65;10.35;;;;;;;-141.02;100.00;38622.81;5115819;28;20193;-66
2023/10/23 04:56:50;;;;;;;10.95;10.65;;;;;;;-141.02;100.00;38691.84;5115804;28;20197;-66
2023/10/23 04:59:17;;;;;;;10.90;10.60;;;;;;;-141.02;100.00;38845.22;5115262;28;20241;-65
2023/10/23 05:01:44;;;;;;;10.88;10.57;;;;;;;-141.02;100.00;38948.78;5115354;28;20193;-67
2023/10/23 05:04:13;;;;;;;11.30;11.00;;;;;;;-141.02;100.00;39036.97;5115594;28;20193;-65
2023/10/23 05:06:39;;;;;;;11.25;10.95;;;;;;;-141.02;100.00;39134.78;5115235;28;20193;-65
2023/10/23 05:09:06;;;;;;;10.40;10.10;;;;;;;-141.02;100.00;39247.91;5115738;28;20201;-66
2023/10/23 05:11:34;;;;;;;10.60;10.30;;;;;;;-141.02;100.00;39297.78;5115200;28;20284;-66
2023/10/23 05:14:01;;;;;;;11.40;11.10;;;;;;;-141.02;100.00;39336.13;5115471;28;20246;-66
2023/10/23 05:16:27;;;;;;;10.73;10.43;;;;;;;-141.02;100.00;39397.50;5115237;28;20284;-66
2023/10/23 05:18:54;;;;;;;10.88;10.57;;;;;;;-141.02;100.00;39533.66;5115576;28;20211;-65
2023/10/23 05:21:23;;;;;;;10.80;10.50;;;;;;;-141.02;100.00;39566.28;5115275;28;20280;-65
2023/10/23 05:23:50;;;;;;;11.23;10.93;;;;;;;-141.02;100.00;39658.34;5115211;28;20198;-65
2023/10/23 05:26:17;;;;;;;12.15;11.75;;;;;;;-141.02;100.00;39694.78;5115338;28;20281;-65
2023/10/23 05:28:43;;;;;;;12.15;11.75;;;;;;;-141.02;100.00;39717.78;5115124;28;20249;-65
2023/10/23 05:31:10;;;;;;;11.15;10.85;;;;;;;-141.02;100.00;39765.75;5114758;28;20233;-66
2023/10/23 05:33:37;;;;;;;11.68;11.38;;;;;;;-141.02;100.00;39790.69;5115054;28;20197;-69
2023/10/23 05:36:05;;;;;;;12.52;12.13;;;;;;;-141.02;100.00;39838.63;5115218;28;20283;-66
2023/10/23 05:38:34;;;;;;;12.10;11.70;;;;;;;-141.02;100.00;39850.13;5114659;28;20280;-67
2023/10/23 05:41:02;;;;;;;12.48;12.07;;;;;;;-141.02;100.00;39884.66;5114586;28;20591;-68
2023/10/23 05:43:29;;;;;;;12.68;12.27;;;;;;;-141.02;100.00;39888.50;5115100;28;20257;-66
2023/10/23 05:45:57;;;;;;;12.73;12.32;;;;;;;-141.02;100.00;39924.94;5114805;28;20272;-69
2023/10/23 05:48:24;;;;;;;11.32;11.02;;;;;;;-141.02;100.00;39980.56;5114458;28;20749;-66
2023/10/23 05:50:58;;;;;;;10.98;10.68;;;;;;;-141.02;100.00;40030.44;5114639;28;20225;-65
2023/10/23 05:53:25;;;;;;;11.57;11.27;;;;;;;-141.02;100.00;40017.00;5114786;28;20615;-66
2023/10/23 05:55:53;;;;;;;12.10;11.70;;;;;;;-141.02;100.00;40064.97;5114634;28;20287;-69
2023/10/23 05:58:21;;;;;;;11.27;10.98;;;;;;;-141.02;100.00;40103.31;5114542;28;20229;-65
2023/10/23 06:00:48;;;;;;;11.07;10.77;;;;;;;-141.02;100.00;40132.09;5114755;28;20231;-69
2023/10/23 06:03:15;;;;;;;12.23;11.82;;;;;;;-141.02;100.00;40166.63;5114359;28;20200;-66
2023/10/23 06:05:42;;;;;;;13.05;12.65;;;;;;;-141.02;100.00;40172.38;5114221;28;20192;-68
2023/10/23 06:08:10;;;;;;;14.27;13.77;;;;;;;-141.02;100.00;40130.19;5113980;28;20199;-67
2023/10/23 06:10:44;;;;;;;14.10;13.65;;;;;;;-141.02;100.00;40055.38;5114257;28;20228;-66
2023/10/23 06:13:13;;;;;;;13.10;12.70;;;;;;;-141.02;100.00;39959.47;5113921;28;20200;-65
2023/10/23 06:15:40;;;;;;;13.52;13.10;;;;;;;-141.02;100.00;39880.81;5113971;28;20189;-72
2023/10/23 06:18:07;;;;;;;13.30;12.90;;;;;;;-141.02;100.00;39890.41;5114241;28;20317;-68
2023/10/23 06:20:35;;;;;;;12.60;12.20;;;;;;;-141.02;100.00;39923.03;5114063;28;20224;-66
2023/10/23 06:23:03;;;;;;;11.80;11.50;;;;;;;-141.02;100.00;39957.53;5113848;28;20730;-66
2023/10/23 06:25:31;;;;;;;11.50;11.20;;;;;;;-141.02;100.00;39995.91;5113638;28;20193;-67
2023/10/23 06:27:59;;;;;;;12.57;12.18;;;;;;;-141.02;100.00;40055.38;5113972;28;20637;-66
2023/10/23 06:30:27;;;;;;;12.40;12.00;;;;;;;-141.02;100.00;40030.44;5113602;28;20271;-69
2023/10/23 06:32:54;;;;;;;11.35;11.05;;;;;;;-141.02;100.00;40066.88;5113897;28;20228;-67
2023/10/23 06:35:21;;;;;;;10.85;10.55;;;;;;;-141.02;100.00;40105.25;5113900;28;20219;-68
2023/10/23 06:37:50;;;;;;;11.10;10.80;;;;;;;-141.02;100.00;40095.66;5113157;28;20224;-65
2023/10/23 06:40:16;;;;;;;11.30;11.00;;;;;;;-141.02;100.00;40099.50;5113718;28;20197;-68
2023/10/23 06:42:43;;;;;;;12.18;11.77;;;;;;;-141.02;100.00;40137.84;5113923;28;20199;-66
2023/10/23 06:45:11;;;;;;;11.32;11.02;;;;;;;-141.02;100.00;40101.41;5113706;28;20219;-66
2023/10/23 06:47:39;;;;;;;11.50;11.20;;;;;;;-141.02;100.00;40087.97;5113561;28;20738;-67
2023/10/23 06:50:07;;;;;;;11.30;11.00;;;;;;;-141.02;100.00;40053.44;5113053;28;20604;-65
2023/10/23 06:52:34;;;;;;;11.20;10.90;;;;;;;-141.02;100.00;40057.28;5113240;28;20704;-67
2023/10/23 06:55:01;;;;;;;11.23;10.93;;;;;;;-141.02;100.00;40049.63;5113120;28;20197;-68
2023/10/23 06:57:28;;;;;;;11.30;11.00;;;;;;;-141.02;100.00;40076.47;5112957;28;20765;-66
2023/10/23 06:59:55;;;;;;;10.90;10.60;;;;;;;-141.02;100.00;40122.50;5113384;28;20586;-66
2023/10/23 07:02:22;;;;;;;11.30;11.00;;;;;;;-141.02;100.00;40252.94;5112990;28;20193;-66
2023/10/23 07:04:52;;;;;;;11.10;10.80;;;;;;;-141.02;100.00;40368.03;5112974;28;20193;-68
2023/10/23 07:07:19;;;;;;;12.38;11.98;;;;;;;-141.02;100.00;40448.63;5113191;28;20189;-69
2023/10/23 07:09:46;;;;;;;13.45;13.05;;;;;;;-141.02;100.00;40523.44;5113178;28;20203;-66
2023/10/23 07:12:13;;;;;;;15.00;14.50;;;;;;;-141.02;100.00;40646.22;5112894;28;20280;-66
2023/10/23 07:14:40;;;;;;;14.40;13.90;;;;;;;-141.02;100.00;40782.44;5112800;28;20193;-67
2023/10/23 07:17:07;;;;;;;15.68;15.07;;;;;;;-141.02;100.00;40811.22;5112781;28;20637;-66
2023/10/23 07:19:34;;;;;;;15.55;14.95;;;;;;;-141.02;100.00;40893.72;5112745;28;20204;-66
2023/10/23 07:22:03;;;;;;;17.00;16.30;;;;;;;-141.02;100.00;40974.28;5112779;28;20262;-66
2023/10/23 07:24:30;;;;;;;17.70;16.90;;;;;;;-141.02;100.00;40970.47;5112695;28;20569;-66
2023/10/23 07:26:57;;;;;;;17.25;16.55;;;;;;;-141.02;100.00;40955.09;5112689;28;20189;-66
2023/10/23 07:29:24;;;;;;;16.90;16.20;;;;;;;-141.02;100.00;40955.09;5112952;28;20250;-66
2023/10/23 07:31:51;;;;;;;16.80;16.10;;;;;;;-141.02;100.00;40962.78;5112749;28;20225;-66
2023/10/23 07:34:18;;;;;;;16.83;16.13;;;;;;;-141.02;100.00;40947.44;5112955;28;20246;-66
2023/10/23 07:36:45;;;;;;;15.63;15.02;;;;;;;-141.02;100.00;40978.13;5112834;28;20236;-67
2023/10/23 07:39:13;;;;;;;16.33;15.68;;;;;;;-141.02;100.00;40993.47;5112533;28;20377;-67
2023/10/23 07:41:40;;;;;;;16.20;15.60;;;;;;;-141.02;100.00;40993.47;5112448;28;20189;-67
2023/10/23 07:44:07;;;;;;;16.10;15.50;;;;;;;-141.02;100.00;41024.19;5112707;28;20229;-66
2023/10/23 07:46:34;;;;;;;15.93;15.32;;;;;;;-141.02;100.00;40987.72;5112797;28;20623;-66
2023/10/23 07:49:01;;;;;;;15.52;14.93;;;;;;;-141.02;100.00;41072.16;5112368;28;20639;-66
2023/10/23 07:51:28;;;;;;;14.70;14.20;;;;;;;-141.02;100.00;41118.19;5115719;28;20278;-65
2023/10/23 07:53:54;;;;;;;15.40;14.80;;;;;;;-141.02;100.00;41170.00;5116676;28;20196;-67
2023/10/23 07:56:23;;;;;;;15.52;14.93;;;;;;;-141.02;100.00;41231.41;5116917;28;20228;-65
2023/10/23 07:58:51;;;;;;;16.02;15.43;;;;;;;-141.02;98.76;41296.66;5116548;28;20290;-66
2023/10/23 08:01:18;;;;;;;16.95;16.25;;;;;;;-141.02;100.00;41335.03;5116813;28;20280;-66
2023/10/23 08:03:45;;;;;;;16.50;15.85;;;;;;;-141.02;100.00;41327.34;5116818;28;20201;-67
2023/10/23 08:06:12;;;;;;;16.23;15.63;;;;;;;-141.02;100.00;41492.38;5116641;28;20670;-67
2023/10/23 08:08:40;;;;;;;16.95;16.25;;;;;;;-141.02;98.51;41477.03;5116743;28;20189;-69
2023/10/23 08:11:08;;;;;;;16.77;16.08;;;;;;;-141.02;95.81;41540.34;5116575;28;20319;-67
2023/10/23 08:13:38;;;;;;;16.55;15.85;;;;;;;-141.02;93.41;41820.53;5116938;28;20231;-66
2023/10/23 08:16:05;;;;;;;17.80;17.00;;;;;;;-141.02;89.73;41778.31;5116530;28;20583;-66
2023/10/23 08:18:34;;;;;;;17.92;17.13;;;;;;;-141.02;90.31;41672.78;5116456;28;20201;-66
2023/10/23 08:21:01;;;;;;;17.40;16.70;;;;;;;-141.02;87.46;41653.59;5116391;28;20645;-67
2023/10/23 08:23:28;;;;;;;18.20;17.40;;;;;;;-141.02;88.25;41638.22;5116080;28;20236;-66
2023/10/23 08:25:55;;;;;;;17.73;16.92;;;;;;;-141.02;89.67;41638.22;5116075;28;20235;-66
2023/10/23 08:28:22;;;;;;;18.25;17.45;;;;;;;-141.02;89.10;41638.22;5116304;28;20201;-67
2023/10/23 08:30:50;;;;;;;17.95;17.15;;;;;;;-141.02;88.23;41812.88;5116166;28;20225;-66
2023/10/23 08:33:17;;;;;;;18.73;17.92;;;;;;;-141.02;89.72;41622.88;5116315;28;20201;-67
2023/10/23 08:35:44;;;;;;;19.10;18.30;;;;;;;-141.02;92.35;41833.97;5116149;28;20292;-67
2023/10/23 08:38:11;;;;;;;18.17;17.38;;;;;;;-141.02;88.75;42066.22;5116110;28;20276;-66
2023/10/23 08:40:38;;;;;;;19.50;18.60;;;;;;;-141.02;88.78;42110.34;5116057;28;20285;-67
2023/10/23 08:43:06;;;;;;;19.38;18.48;;;;;;;-141.02;85.70;42229.34;5116061;27;20193;-67
2023/10/23 08:45:33;;;;;;;20.00;19.10;;;;;;;-141.02;81.46;42260.06;5116066;28;20272;-66
2023/10/23 08:48:01;;;;;;;19.90;18.90;;;;;;;-141.02;78.52;42476.97;5115913;28;20224;-66
2023/10/23 08:50:29;;;;;;;19.95;19.05;;;;;;;-141.02;77.21;42588.31;5115522;28;20287;-68
2023/10/23 08:52:59;;;;;;;20.33;19.33;;;;;;;-141.02;73.35;42784.09;5115478;28;20232;-67
2023/10/23 08:55:29;;;;;;;20.38;19.38;;;;;;;-141.02;71.97;42797.53;5115524;28;20662;-66
2023/10/23 08:57:58;;;;;;;19.95;18.95;;;;;;;-141.02;71.96;42786.03;5115521;28;20267;-67
2023/10/23 09:00:26;;;;;;;19.90;18.90;;;;;;;-141.02;70.62;42741.88;5115520;27;20197;-66
2023/10/23 09:02:53;;;;;;;19.85;18.85;;;;;;;-141.02;70.58;42713.06;5115100;28;20233;-67
2023/10/23 09:05:23;;;;;;;19.55;18.60;;;;;;;-141.02;72.64;42524.94;5115215;28;20640;-66
2023/10/23 09:07:50;;;;;;;19.00;18.10;;;;;;;-141.02;76.18;42348.34;5115350;28;20558;-66
2023/10/23 09:10:17;;;;;;;18.90;18.00;;;;;;;-141.02;75.73;42283.09;5115124;28;20246;-66
2023/10/23 09:12:44;;;;;;;19.92;18.95;;;;;;;-141.02;77.26;42277.34;5115280;28;20287;-66
2023/10/23 09:15:15;;;;;;;19.17;18.17;;;;;;;-141.02;78.93;42340.69;5115436;28;20250;-67
2023/10/23 09:17:42;;;;;;;18.48;17.58;;;;;;;-141.02;78.85;42428.97;5115426;28;20228;-68
2023/10/23 09:20:23;;;;;;;18.17;17.27;;;;;;;-141.02;77.19;42624.78;5115404;28;20284;-66
2023/10/23 09:22:50;;;;;;;18.45;17.55;;;;;;;-141.02;74.86;42569.09;5115273;28;20263;-67
2023/10/23 09:25:18;;;;;;;18.35;17.45;;;;;;;-141.02;74.67;42404.03;5115237;28;20193;-67
2023/10/23 09:27:45;;;;;;;18.30;17.40;;;;;;;-141.02;71.94;42826.34;5114873;28;20200;-67
2023/10/23 09:30:13;;;;;;;18.65;17.65;;;;;;;-141.02;70.83;42893.53;5114928;28;20579;-67
2023/10/23 09:32:40;;;;;;;18.60;17.60;;;;;;;-141.02;70.83;42882.00;5115301;28;20228;-67
2023/10/23 09:35:08;;;;;;;18.73;17.73;;;;;;;-141.02;68.93;42839.78;5115052;28;20280;-66
2023/10/23 09:37:37;;;;;;;18.63;17.63;;;;;;;-141.02;69.00;42697.72;5114842;28;20193;-66
2023/10/23 09:40:09;;;;;;;18.75;17.75;;;;;;;-141.02;68.98;42774.50;5114959;28;20207;-67
2023/10/23 09:42:36;;;;;;;18.42;17.45;;;;;;;-141.02;71.00;42501.91;5114962;28;20193;-67
2023/10/23 09:45:04;;;;;;;18.55;17.55;;;;;;;-141.02;70.99;42409.78;5114561;28;20729;-66
2023/10/23 09:47:32;;;;;;;18.40;17.50;;;;;;;-141.02;70.67;42476.97;5114914;28;20204;-66
2023/10/23 09:50:01;;;;;;;18.13;17.23;;;;;;;-141.02;69.66;42513.44;5114396;28;20267;-67
2023/10/23 09:52:28;;;;;;;18.73;17.73;;;;;;;-141.02;68.57;42588.31;5114614;28;20271;-68
2023/10/23 09:55:00;;;;;;;18.20;17.30;;;;;;;-141.02;66.57;42715.00;5114673;28;20276;-66
2023/10/23 09:57:34;;;;;;;18.55;17.55;;;;;;;-141.02;66.84;42670.84;5114553;28;20181;-68
2023/10/23 10:00:05;;;;;;;18.63;17.63;;;;;;;-141.02;67.05;43043.28;5114291;28;20189;-66
2023/10/23 10:02:35;;;;;;;18.45;17.50;;;;;;;-141.02;63.57;43233.34;5114541;28;20224;-67
2023/10/23 10:05:05;;;;;;;41.47;23.83;;;;;;;-141.02;65.12;42901.22;5114116;28;20193;-67
2023/10/23 10:07:47;;;;;;;17.90;17.00;;;;;;;-141.02;64.89;42809.06;5114422;28;20189;-66
2023/10/23 10:10:15;;;;;;;18.23;17.33;;;;;;;-141.02;64.02;42816.75;5114396;28;20187;-67
2023/10/23 10:12:43;;;;;;;18.33;17.42;;;;;;;-141.02;63.41;42839.78;5113387;28;20264;-66
2023/10/23 10:15:11;;;;;;;18.55;17.55;;;;;;;-141.02;62.75;43335.09;5114155;28;20219;-67
2023/10/23 10:17:39;;;;;;;18.77;17.77;;;;;;;-141.02;60.75;43004.88;5114204;28;20201;-68
2023/10/23 10:20:09;;;;;;;18.90;17.90;;;;;;;-141.02;61.76;43350.47;5113914;28;20740;-67
2023/10/23 10:22:39;;;;;;;19.25;18.25;;;;;;;-141.02;61.95;43486.78;5113719;28;20280;-66
2023/10/23 10:25:09;;;;;;;47.35;44.85;;;;;;;-141.02;58.97;43241.03;5114371;28;20266;-66
2023/10/23 10:27:38;;;;;;;72.50;68.80;;;;;;;-141.02;61.42;43392.72;5113628;28;20681;-66
2023/10/23 10:30:07;;;;;;;51.45;48.65;;;;;;;-141.02;61.79;43292.88;5114143;27;20603;-67
2023/10/23 10:32:34;;;;;;;47.00;44.50;;;;;;;-141.02;62.53;42609.41;5113520;28;20221;-66
2023/10/23 10:35:06;;;;;;;47.80;45.30;;;;;;;-141.02;64.51;42536.47;5114184;28;20255;-66
2023/10/23 10:37:33;;;;;;;49.97;47.28;;;;;;;-141.02;64.42;43074.00;5114630;28;20191;-67
2023/10/23 10:40:09;;;;;;;48.85;46.25;;;;;;;-141.02;63.60;43170.00;5113842;28;20201;-66
2023/10/23 10:42:42;;;;;;;46.30;43.78;;;;;;;-141.02;60.21;43262.16;5113849;28;20189;-66
2023/10/23 10:45:15;;;;;;;45.25;42.75;;;;;;;-141.02;61.11;43350.47;5113692;28;20272;-66
2023/10/23 10:47:44;;;;;;;45.70;43.20;;;;;;;-141.02;61.02;43350.47;5113866;28;20186;-68
2023/10/23 10:50:11;;;;;;;43.72;41.35;;;;;;;-141.02;60.12;43308.22;5113552;28;20249;-66
2023/10/23 10:52:40;;;;;;;45.53;43.03;;;;;;;-141.02;59.85;43348.56;5113100;28;20323;-66
2023/10/23 10:55:08;;;;;;;45.22;42.72;;;;;;;-141.02;58.72;43210.31;5113803;28;20197;-67
2023/10/23 10:57:37;;;;;;;45.58;43.08;;;;;;;-141.02;58.10;43392.72;5113147;28;20229;-66
2023/10/23 11:00:07;;;;;;;49.88;47.17;;;;;;;-141.02;59.30;43292.88;5113388;28;20193;-66
2023/10/23 11:02:36;;;;;;;44.95;42.45;;;;;;;-141.02;59.09;43358.16;5113171;28;20622;-66
2023/10/23 11:05:09;;;;;;;38.40;36.40;;;;;;;-141.02;59.08;43342.78;5112983;28;20197;-67